Time;durP1;ratioP1;P1;durP2;ratioP2;P2;SDS_P1;SDS_P2;PMS_P1;PMS_P2;Temp;Humidity;BMP_temperature;BMP_pressure;BME280_temperature;BME280_humidity;BME280_pressure;Samples;Min_cycle;Max_cycle;Signal;HPM_P1;HPM_P2
2021/09/26 00:01:46;;;;;;;15.55;11.18;;;16.10;91.50;;;;;;5048576;28;20029;-83
2021/09/26 00:04:12;;;;;;;14.75;10.73;;;16.00;91.50;;;;;;5048512;28;20401;-83
2021/09/26 00:06:37;;;;;;;16.83;10.80;;;16.00;91.50;;;;;;5051437;28;20033;-83
2021/09/26 00:09:04;;;;;;;13.30;9.60;;;16.00;91.60;;;;;;5052793;28;20025;-83
2021/09/26 00:11:30;;;;;;;14.15;10.13;;;16.00;91.60;;;;;;5052434;28;20032;-84
2021/09/26 00:13:56;;;;;;;14.73;10.77;;;16.10;91.70;;;;;;5052831;28;20025;-83
2021/09/26 00:16:22;;;;;;;16.02;10.57;;;16.00;91.60;;;;;;5034718;28;20043;-83
2021/09/26 00:18:48;;;;;;;15.48;9.52;;;16.00;91.60;;;;;;5052882;28;20104;-84
2021/09/26 00:21:14;;;;;;;17.20;9.57;;;16.00;91.60;;;;;;5018529;28;20485;-83
2021/09/26 00:23:39;;;;;;;15.73;10.10;;;16.00;91.60;;;;;;5052232;28;20398;-84
2021/09/26 00:26:05;;;;;;;15.73;10.48;;;16.00;91.50;;;;;;5033459;28;20051;-84
2021/09/26 00:28:31;;;;;;;17.02;9.20;;;16.00;91.50;;;;;;5050729;28;20030;-84
2021/09/26 00:30:58;;;;;;;13.30;9.40;;;16.00;91.50;;;;;;5054204;28;20025;-82
2021/09/26 00:33:24;;;;;;;16.23;9.27;;;16.00;91.50;;;;;;5056013;28;20056;-83
2021/09/26 00:35:50;;;;;;;10.80;8.50;;;16.10;91.50;;;;;;5056106;28;20062;-84
2021/09/26 00:38:18;;;;;;;15.07;9.95;;;16.00;91.50;;;;;;5056021;28;20048;-83
2021/09/26 00:40:48;;;;;;;11.68;8.10;;;16.10;91.50;;;;;;5037942;28;20482;-83
2021/09/26 00:43:14;;;;;;;12.95;8.75;;;16.00;91.40;;;;;;5037762;28;20041;-83
2021/09/26 00:45:40;;;;;;;16.42;9.32;;;16.00;91.40;;;;;;5055079;28;20492;-83
2021/09/26 00:48:06;;;;;;;11.45;8.35;;;16.00;91.40;;;;;;5036440;28;20021;-83
2021/09/26 00:50:32;;;;;;;12.50;8.13;;;16.10;91.50;;;;;;5054305;28;20029;-84
2021/09/26 00:52:57;;;;;;;12.25;8.98;;;16.00;91.40;;;;;;5036266;28;20030;-83
2021/09/26 00:55:23;;;;;;;15.77;9.02;;;16.00;91.40;;;;;;5054644;28;20041;-83
2021/09/26 00:57:49;;;;;;;15.00;9.68;;;16.00;91.50;;;;;;5054859;28;20059;-84
2021/09/26 01:00:18;;;;;;;16.88;10.18;;;16.00;91.50;;;;;;5038049;28;20071;-83
2021/09/26 01:02:44;;;;;;;10.88;8.82;;;15.90;91.50;;;;;;5055666;28;20047;-83
2021/09/26 01:05:12;;;;;;;12.18;9.30;;;15.90;91.50;;;;;;5034513;28;20045;-83
2021/09/26 01:07:47;;;;;;;13.00;8.30;;;15.90;91.80;;;;;;5035570;28;20034;-83
2021/09/26 01:10:22;;;;;;;13.10;9.20;;;15.90;91.60;;;;;;5036039;28;20402;-84
2021/09/26 01:13:04;;;;;;;12.10;9.07;;;15.90;91.60;;;;;;5035785;28;20024;-83
2021/09/26 01:15:42;;;;;;;12.40;8.80;;;15.90;91.60;;;;;;5034666;28;20029;-83
2021/09/26 01:18:43;;;;;;;13.50;8.48;;;15.90;91.60;;;;;;5035806;28;20060;-83
2021/09/26 01:21:29;;;;;;;10.95;7.75;;;15.90;91.60;;;;;;5005943;28;20025;-84
2021/09/26 01:24:19;;;;;;;13.00;8.38;;;15.90;91.60;;;;;;5013489;28;20045;-83
2021/09/26 01:27:01;;;;;;;14.50;8.23;;;15.90;91.60;;;;;;5025193;28;20052;-83
2021/09/26 01:29:53;;;;;;;14.70;7.30;;;15.90;91.50;;;;;;5034316;28;20024;-83
2021/09/26 01:32:20;;;;;;;11.38;7.40;;;15.90;91.40;;;;;;5034340;28;20044;-84
2021/09/26 01:34:49;;;;;;;8.98;6.45;;;15.90;91.40;;;;;;5035338;28;20029;-82
2021/09/26 01:37:43;;;;;;;8.13;6.03;;;15.90;91.40;;;;;;5035208;28;20022;-84
2021/09/26 01:40:40;;;;;;;15.90;7.95;;;16.00;91.40;;;;;;5035327;28;20560;-84
2021/09/26 01:43:09;;;;;;;13.85;8.05;;;16.00;91.40;;;;;;5034703;28;20057;-84
2021/09/26 01:45:38;;;;;;;10.60;7.00;;;16.00;91.40;;;;;;5035106;28;20382;-83
2021/09/26 01:48:13;;;;;;;11.45;6.22;;;16.00;91.40;;;;;;5035234;28;20478;-83
2021/09/26 01:50:39;;;;;;;9.75;6.22;;;16.00;91.50;;;;;;5033962;28;20037;-83
2021/09/26 01:53:06;;;;;;;17.55;7.35;;;16.10;91.40;;;;;;5034041;28;20053;-84
2021/09/26 01:55:33;;;;;;;14.38;7.60;;;16.00;91.40;;;;;;5035071;28;20049;-83
2021/09/26 01:58:01;;;;;;;9.25;7.00;;;16.10;91.40;;;;;;5050435;28;20044;-83
2021/09/26 02:00:27;;;;;;;14.15;6.85;;;16.10;91.40;;;;;;5034744;28;20112;-83
2021/09/26 02:02:54;;;;;;;11.15;6.50;;;16.10;91.30;;;;;;5034543;28;20420;-84
2021/09/26 02:05:20;;;;;;;11.95;6.70;;;16.10;91.20;;;;;;5011366;28;20128;-83
2021/09/26 02:07:49;;;;;;;9.55;7.25;;;16.10;91.40;;;;;;5016351;28;20029;-83
2021/09/26 02:10:17;;;;;;;;;;;16.20;91.20;;;;;;5034887;28;20363;-83
2021/09/26 02:12:43;;;;;;;8.73;6.60;;;16.20;91.10;;;;;;5033312;28;19905;-83
2021/09/26 02:15:14;;;;;;;9.02;6.97;;;16.20;91.40;;;;;;5033293;28;20048;-83
2021/09/26 02:17:43;;;;;;;10.55;6.18;;;16.20;91.30;;;;;;5034542;28;20033;-83
2021/09/26 02:20:10;;;;;;;12.30;6.18;;;16.20;91.30;;;;;;5033024;28;20041;-83
2021/09/26 02:22:37;;;;;;;9.48;6.22;;;16.20;91.20;;;;;;5033323;28;20041;-83
2021/09/26 02:25:07;;;;;;;10.75;6.10;;;16.20;91.20;;;;;;5034366;28;20043;-83
2021/09/26 02:27:33;;;;;;;7.97;5.80;;;16.30;91.20;;;;;;5034366;28;20028;-83
2021/09/26 02:29:59;;;;;;;7.30;5.68;;;16.30;91.10;;;;;;5033231;28;20036;-83
2021/09/26 02:32:25;;;;;;;6.57;5.85;;;16.30;91.00;;;;;;5034338;28;20116;-83
2021/09/26 02:34:50;;;;;;;8.93;5.95;;;16.30;91.00;;;;;;5033941;28;20053;-83
2021/09/26 02:37:16;;;;;;;11.55;7.00;;;16.30;91.00;;;;;;5034239;28;20807;-83
2021/09/26 02:39:43;;;;;;;9.45;6.65;;;16.40;90.90;;;;;;5013275;28;20037;-83
2021/09/26 02:42:22;;;;;;;9.10;6.50;;;16.40;90.90;;;;;;5016949;28;20029;-83
2021/09/26 02:44:57;;;;;;;12.88;6.05;;;16.40;90.90;;;;;;5034030;28;20022;-83
2021/09/26 02:47:25;;;;;;;10.23;6.82;;;16.40;90.80;;;;;;5033154;28;20030;-83
2021/09/26 02:49:52;;;;;;;12.35;6.75;;;16.40;90.90;;;;;;5031973;28;20025;-83
2021/09/26 02:52:19;;;;;;;8.98;6.25;;;16.40;90.90;;;;;;5031543;28;20033;-83
2021/09/26 02:54:45;;;;;;;10.82;7.15;;;16.40;90.90;;;;;;5029023;28;20490;-83
2021/09/26 02:57:12;;;;;;;10.63;6.50;;;16.40;90.90;;;;;;5032147;28;20108;-83
2021/09/26 02:59:38;;;;;;;8.48;6.38;;;16.40;91.00;;;;;;5031319;28;20029;-78
2021/09/26 03:02:04;;;;;;;14.88;7.32;;;16.40;90.90;;;;;;5031293;28;20163;-78
2021/09/26 03:04:30;;;;;;;6.93;6.15;;;16.50;90.90;;;;;;5041449;28;20506;-78
2021/09/26 03:06:56;;;;;;;10.18;7.00;;;16.50;90.90;;;;;;5050993;28;20036;-78
2021/09/26 03:09:23;;;;;;;9.75;6.82;;;16.40;90.90;;;;;;5034260;28;20040;-78
2021/09/26 03:11:49;;;;;;;11.38;7.50;;;16.40;91.00;;;;;;5051576;28;20033;-78
2021/09/26 03:14:14;;;;;;;10.60;7.18;;;16.40;91.10;;;;;;5051558;28;20033;-78
2021/09/26 03:16:40;;;;;;;9.02;6.88;;;16.40;91.50;;;;;;5033636;28;20126;-78
2021/09/26 03:19:06;;;;;;;11.27;7.28;;;16.40;91.30;;;;;;5051392;28;20041;-78
2021/09/26 03:21:31;;;;;;;12.88;8.05;;;16.40;91.30;;;;;;5051316;28;20063;-78
2021/09/26 03:23:58;;;;;;;10.02;6.85;;;16.40;91.40;;;;;;5033382;28;20071;-78
2021/09/26 03:26:25;;;;;;;9.05;6.93;;;16.40;91.40;;;;;;5051243;28;20088;-78
2021/09/26 03:28:51;;;;;;;11.32;7.70;;;16.40;91.40;;;;;;5051383;28;20044;-78
2021/09/26 03:31:19;;;;;;;10.27;6.75;;;16.40;91.40;;;;;;5051210;28;20036;-78
2021/09/26 03:33:45;;;;;;;10.57;7.57;;;16.40;91.40;;;;;;5050905;28;20547;-78
2021/09/26 03:36:11;;;;;;;10.35;6.82;;;16.30;91.30;;;;;;5051328;28;20037;-78
2021/09/26 03:38:36;;;;;;;12.50;7.38;;;16.40;91.30;;;;;;5033058;28;20090;-78
2021/09/26 03:41:03;;;;;;;11.57;8.10;;;16.40;91.30;;;;;;5033151;28;20036;-78
2021/09/26 03:43:28;;;;;;;10.60;7.50;;;16.30;91.30;;;;;;5032763;28;20029;-78
2021/09/26 03:45:54;;;;;;;7.97;6.75;;;16.30;91.30;;;;;;5050830;28;20029;-78
2021/09/26 03:48:23;;;;;;;7.82;6.60;;;16.30;91.30;;;;;;5050878;28;20025;-78
2021/09/26 03:50:51;;;;;;;12.02;7.45;;;16.30;91.30;;;;;;5050467;28;20112;-78
2021/09/26 03:53:18;;;;;;;11.45;7.63;;;16.30;91.30;;;;;;5031564;28;20025;-78
2021/09/26 03:55:44;;;;;;;10.07;7.07;;;16.30;91.40;;;;;;5026393;28;20033;-78
2021/09/26 03:58:10;;;;;;;9.60;7.43;;;16.30;91.40;;;;;;5033179;28;20119;-78
2021/09/26 04:00:36;;;;;;;11.27;7.72;;;16.30;91.40;;;;;;5016666;28;20148;-78
2021/09/26 04:03:02;;;;;;;11.57;7.03;;;16.30;91.50;;;;;;5051091;28;20359;-78
2021/09/26 04:05:28;;;;;;;11.38;6.70;;;16.30;91.50;;;;;;5033170;28;20126;-78
2021/09/26 04:07:53;;;;;;;10.88;6.97;;;16.40;91.50;;;;;;5054604;28;20119;-78
2021/09/26 04:10:19;;;;;;;9.00;7.50;;;16.40;91.50;;;;;;5055117;28;20569;-78
2021/09/26 04:12:45;;;;;;;10.93;7.22;;;16.30;91.50;;;;;;5054638;28;20036;-78
2021/09/26 04:15:11;;;;;;;9.35;6.97;;;16.40;91.50;;;;;;5053530;28;20029;-78
2021/09/26 04:17:37;;;;;;;9.65;7.57;;;16.40;91.50;;;;;;5037163;28;20025;-78
2021/09/26 04:20:04;;;;;;;13.18;7.47;;;16.40;91.40;;;;;;5054144;28;20482;-78
2021/09/26 04:22:30;;;;;;;12.27;7.60;;;16.30;91.40;;;;;;5022410;28;20474;-78
2021/09/26 04:24:55;;;;;;;8.90;7.03;;;16.30;91.40;;;;;;5054659;28;20029;-78
2021/09/26 04:27:21;;;;;;;10.25;6.60;;;16.30;91.50;;;;;;5053430;28;20036;-78
2021/09/26 04:29:47;;;;;;;9.13;7.10;;;16.30;91.50;;;;;;5054395;28;20045;-78
2021/09/26 04:32:13;;;;;;;11.82;7.35;;;16.30;91.50;;;;;;5053219;28;20057;-78
2021/09/26 04:34:38;;;;;;;8.63;6.60;;;16.30;91.50;;;;;;5028789;28;20034;-78
2021/09/26 04:37:04;;;;;;;12.40;7.30;;;16.20;91.50;;;;;;5051436;28;20025;-78
2021/09/26 04:39:30;;;;;;;11.77;7.30;;;16.20;91.80;;;;;;5052834;28;20029;-78
2021/09/26 04:41:56;;;;;;;9.48;6.50;;;16.20;91.50;;;;;;5054284;28;20470;-78
2021/09/26 04:44:21;;;;;;;8.90;7.18;;;16.20;91.60;;;;;;5036199;28;20028;-78
2021/09/26 04:46:47;;;;;;;8.38;7.10;;;16.20;91.60;;;;;;5032969;28;20463;-78
2021/09/26 04:49:13;;;;;;;9.77;6.88;;;16.10;91.70;;;;;;5049248;28;20021;-78
2021/09/26 04:51:39;;;;;;;10.00;6.30;;;16.20;91.70;;;;;;5052364;28;20028;-78
2021/09/26 04:54:05;;;;;;;12.18;6.90;;;16.10;91.70;;;;;;5036392;28;20094;-78
2021/09/26 04:56:32;;;;;;;9.57;6.65;;;16.20;91.80;;;;;;5054462;28;20029;-78
2021/09/26 04:58:57;;;;;;;10.35;7.15;;;16.20;91.80;;;;;;5055173;28;20230;-78
2021/09/26 05:01:23;;;;;;;8.77;7.05;;;16.20;91.80;;;;;;5036307;28;20116;-78
2021/09/26 05:03:49;;;;;;;11.77;7.18;;;16.20;91.80;;;;;;5036558;28;20127;-78
2021/09/26 05:06:15;;;;;;;8.40;6.15;;;16.20;91.80;;;;;;5054200;28;20037;-78
2021/09/26 05:08:41;;;;;;;8.63;6.60;;;16.20;91.90;;;;;;5053802;28;20021;-78
2021/09/26 05:11:07;;;;;;;8.77;6.07;;;16.20;91.90;;;;;;5052858;28;20021;-78
2021/09/26 05:13:33;;;;;;;7.07;6.38;;;16.20;91.80;;;;;;5053344;28;20035;-78
2021/09/26 05:15:58;;;;;;;6.85;6.15;;;16.30;91.80;;;;;;5053662;28;20120;-78
2021/09/26 05:18:24;;;;;;;8.57;6.38;;;16.30;92.10;;;;;;5035865;28;20043;-78
2021/09/26 05:20:53;;;;;;;9.38;6.65;;;16.30;91.80;;;;;;5052958;28;20392;-78
2021/09/26 05:23:20;;;;;;;8.27;6.45;;;16.30;91.70;;;;;;5053638;28;20029;-78
2021/09/26 05:25:46;;;;;;;8.88;6.50;;;16.30;91.70;;;;;;5034151;28;20029;-78
2021/09/26 05:28:12;;;;;;;10.93;7.25;;;16.40;91.80;;;;;;5053832;28;20033;-78
2021/09/26 05:30:38;;;;;;;9.48;6.50;;;16.40;91.80;;;;;;5032224;28;20072;-78
2021/09/26 05:33:04;;;;;;;8.45;7.15;;;16.40;91.80;;;;;;5034175;28;20386;-78
2021/09/26 05:35:30;;;;;;;10.40;7.63;;;16.40;91.80;;;;;;5053749;28;20037;-77
2021/09/26 05:37:57;;;;;;;8.68;6.55;;;16.40;91.90;;;;;;5053338;28;20029;-78
2021/09/26 05:40:23;;;;;;;7.88;6.40;;;16.40;91.90;;;;;;5035296;28;20796;-78
2021/09/26 05:42:49;;;;;;;9.15;6.25;;;16.40;91.90;;;;;;5045101;28;20497;-78
2021/09/26 05:45:15;;;;;;;13.15;7.50;;;16.40;92.00;;;;;;5053217;28;20021;-78
2021/09/26 05:47:40;;;;;;;8.90;6.13;;;16.30;92.00;;;;;;5053580;28;20434;-78
2021/09/26 05:50:06;;;;;;;13.45;6.75;;;16.40;92.00;;;;;;5050486;28;20401;-78
2021/09/26 05:52:32;;;;;;;9.15;6.78;;;16.40;92.10;;;;;;5012271;28;20044;-78
2021/09/26 05:54:57;;;;;;;11.75;7.35;;;16.40;92.40;;;;;;5053256;28;20045;-78
2021/09/26 05:57:23;;;;;;;9.57;6.72;;;16.40;92.10;;;;;;5053081;28;20070;-78
2021/09/26 05:59:49;;;;;;;10.63;6.63;;;16.40;92.10;;;;;;5051875;28;20036;-78
2021/09/26 06:02:22;;;;;;;13.15;7.40;;;16.40;92.10;;;;;;5034694;28;20116;-78
2021/09/26 06:04:48;;;;;;;9.40;7.72;;;16.40;92.10;;;;;;5052749;28;20440;-78
2021/09/26 06:07:14;;;;;;;14.40;8.00;;;16.40;92.10;;;;;;5052747;28;20087;-78
2021/09/26 06:09:39;;;;;;;10.10;7.75;;;16.40;92.10;;;;;;5051670;28;20025;-77
2021/09/26 06:12:05;;;;;;;10.02;7.65;;;16.40;92.10;;;;;;5051690;28;20037;-78
2021/09/26 06:14:31;;;;;;;10.18;7.82;;;16.50;92.10;;;;;;5051546;28;20064;-78
2021/09/26 06:16:56;;;;;;;11.00;7.20;;;16.50;92.10;;;;;;5052726;28;20081;-78
2021/09/26 06:19:22;;;;;;;10.55;7.43;;;16.60;92.10;;;;;;5019395;28;20037;-78
2021/09/26 06:21:48;;;;;;;8.73;7.28;;;16.60;92.10;;;;;;5035345;28;20028;-78
2021/09/26 06:24:14;;;;;;;9.93;8.02;;;16.70;92.10;;;;;;5035306;28;20029;-78
2021/09/26 06:26:39;;;;;;;11.05;7.90;;;16.70;92.10;;;;;;5052509;28;20098;-78
2021/09/26 06:29:05;;;;;;;9.60;8.00;;;16.80;92.10;;;;;;5051980;28;20095;-78
2021/09/26 06:31:31;;;;;;;7.50;6.70;;;16.90;92.10;;;;;;5034481;28;20653;-78
2021/09/26 06:33:57;;;;;;;13.55;7.55;;;16.90;92.10;;;;;;5052223;28;20486;-78
2021/09/26 06:36:22;;;;;;;10.48;8.63;;;16.90;92.10;;;;;;5052083;28;20033;-78
2021/09/26 06:38:48;;;;;;;13.02;9.27;;;17.00;92.10;;;;;;5052433;28;20500;-78
2021/09/26 06:41:15;;;;;;;12.95;9.10;;;17.10;92.10;;;;;;5051811;28;20048;-78
2021/09/26 06:43:41;;;;;;;10.57;7.50;;;17.10;92.00;;;;;;5052133;28;20521;-78
2021/09/26 06:46:07;;;;;;;11.63;7.82;;;17.20;92.00;;;;;;5033651;28;20171;-78
2021/09/26 06:48:32;;;;;;;16.27;8.88;;;17.20;92.00;;;;;;5052521;28;20116;-78
2021/09/26 06:50:58;;;;;;;9.90;8.75;;;17.30;92.10;;;;;;5050374;28;20145;-78
2021/09/26 06:53:24;;;;;;;12.07;8.45;;;17.40;92.10;;;;;;5051730;28;20028;-78
2021/09/26 06:55:49;;;;;;;15.55;8.40;;;17.40;92.10;;;;;;5052689;28;20033;-78
2021/09/26 06:58:15;;;;;;;11.77;9.20;;;17.40;92.10;;;;;;5048913;28;20045;-78
2021/09/26 07:00:41;;;;;;;14.77;8.80;;;17.50;92.10;;;;;;5052304;28;20033;-78
2021/09/26 07:03:06;;;;;;;11.63;9.45;;;17.60;92.00;;;;;;5051757;28;20061;-78
2021/09/26 07:05:32;;;;;;;12.75;8.70;;;17.60;92.00;;;;;;5052181;28;20059;-78
2021/09/26 07:07:58;;;;;;;9.93;8.00;;;17.70;92.00;;;;;;5034310;28;20032;-78
2021/09/26 07:10:23;;;;;;;11.13;8.23;;;17.80;91.90;;;;;;5050768;28;20017;-78
2021/09/26 07:12:49;;;;;;;11.80;9.20;;;17.90;91.80;;;;;;5051795;28;20037;-78
2021/09/26 07:15:15;;;;;;;10.90;8.63;;;18.00;92.00;;;;;;5032966;28;20024;-78
2021/09/26 07:17:40;;;;;;;12.63;8.32;;;18.10;91.60;;;;;;5042117;28;20508;-78
2021/09/26 07:20:07;;;;;;;17.40;9.60;;;18.20;91.50;;;;;;5034590;28;20514;-78
2021/09/26 07:22:32;;;;;;;11.18;8.27;;;18.40;91.50;;;;;;5050395;28;20108;-79
2021/09/26 07:24:58;;;;;;;13.75;9.40;;;18.50;91.50;;;;;;5052288;28;20108;-78
2021/09/26 07:27:25;;;;;;;12.45;8.75;;;18.60;91.40;;;;;;5051772;28;20083;-78
2021/09/26 07:29:54;;;;;;;12.20;9.35;;;18.70;91.30;;;;;;5051779;28;21807;-78
2021/09/26 07:32:20;;;;;;;9.40;8.18;;;18.80;91.20;;;;;;5051799;28;20116;-78
2021/09/26 07:34:46;;;;;;;14.63;9.10;;;18.90;91.00;;;;;;5051170;28;20029;-77
2021/09/26 07:37:12;;;;;;;14.00;8.90;;;19.00;90.90;;;;;;5033428;28;20036;-77
2021/09/26 07:39:38;;;;;;;13.27;8.90;;;19.10;90.90;;;;;;5050104;28;20029;-77
2021/09/26 07:42:05;;;;;;;11.55;8.73;;;19.20;91.00;;;;;;5049894;28;20037;-78
2021/09/26 07:44:30;;;;;;;11.65;8.52;;;19.40;90.80;;;;;;5031803;28;20025;-78
2021/09/26 07:46:56;;;;;;;12.45;7.97;;;19.50;90.80;;;;;;5017252;28;20063;-78
2021/09/26 07:49:22;;;;;;;9.88;8.57;;;19.60;90.60;;;;;;5051581;28;20413;-78
2021/09/26 07:51:48;;;;;;;11.68;8.63;;;19.70;90.50;;;;;;5049908;28;20113;-77
2021/09/26 07:54:15;;;;;;;14.77;8.90;;;19.80;90.40;;;;;;5051472;28;20021;-77
2021/09/26 07:56:41;;;;;;;9.77;8.52;;;19.90;90.30;;;;;;5028650;28;20363;-77
2021/09/26 07:59:07;;;;;;;12.07;8.20;;;20.00;90.00;;;;;;5048241;28;20095;-77
2021/09/26 08:01:33;;;;;;;10.60;8.60;;;20.10;90.00;;;;;;5007284;28;20037;-78
2021/09/26 08:03:59;;;;;;;10.07;7.50;;;20.30;89.60;;;;;;5045792;28;20065;-77
2021/09/26 08:06:25;;;;;;;12.40;7.93;;;20.30;89.40;;;;;;5050391;28;20047;-78
2021/09/26 08:08:51;;;;;;;9.40;7.70;;;20.40;89.10;;;;;;5050899;28;20033;-78
2021/09/26 08:11:17;;;;;;;11.27;7.78;;;20.50;88.90;;;;;;5049263;28;20132;-78
2021/09/26 08:13:42;;;;;;;14.57;7.20;;;20.60;88.70;;;;;;5029561;28;20120;-78
2021/09/26 08:16:08;;;;;;;9.07;7.22;;;20.70;88.20;;;;;;5032669;28;20091;-78
2021/09/26 08:18:34;;;;;;;10.70;6.70;;;20.70;88.30;;;;;;5034124;28;20827;-78
2021/09/26 08:20:59;;;;;;;9.63;6.93;;;20.80;87.90;;;;;;5049520;28;20494;-77
2021/09/26 08:23:25;;;;;;;10.88;7.38;;;20.90;87.60;;;;;;5051453;28;20041;-77
2021/09/26 08:25:51;;;;;;;8.32;7.45;;;21.00;86.80;;;;;;5050794;28;20142;-77
2021/09/26 08:28:18;;;;;;;11.43;7.50;;;21.00;86.50;;;;;;5015709;28;20044;-77
2021/09/26 08:30:44;;;;;;;10.35;7.82;;;21.10;86.00;;;;;;5049436;28;20112;-77
2021/09/26 08:33:10;;;;;;;10.07;8.10;;;21.10;85.50;;;;;;5047705;28;20107;-78
2021/09/26 08:35:36;;;;;;;10.65;8.10;;;21.20;85.50;;;;;;5049064;28;20429;-77
2021/09/26 08:38:02;;;;;;;13.13;8.38;;;21.20;84.90;;;;;;5014547;28;20033;-77
2021/09/26 08:40:28;;;;;;;9.20;7.68;;;21.30;85.10;;;;;;5031786;28;20025;-77
2021/09/26 08:42:54;;;;;;;14.30;8.15;;;21.40;85.50;;;;;;5015058;28;20036;-77
2021/09/26 08:45:21;;;;;;;11.55;8.25;;;21.40;84.80;;;;;;5031230;28;20029;-77
2021/09/26 08:47:47;;;;;;;9.95;7.47;;;21.50;84.70;;;;;;5013896;28;20021;-77
2021/09/26 08:50:17;;;;;;;11.20;7.97;;;21.50;85.00;;;;;;5048921;28;20602;-77
2021/09/26 08:52:44;;;;;;;8.77;7.30;;;21.60;84.80;;;;;;5052716;28;20017;-77
2021/09/26 08:55:11;;;;;;;10.27;8.20;;;21.60;84.80;;;;;;5053200;28;20135;-77
2021/09/26 08:57:37;;;;;;;12.85;8.20;;;21.60;84.90;;;;;;5053284;28;20040;-78
2021/09/26 09:00:08;;;;;;;11.75;8.73;;;21.70;84.40;;;;;;5053376;28;20020;-78
2021/09/26 09:02:34;;;;;;;13.98;9.30;;;21.80;84.30;;;;;;5050897;28;20032;-78
2021/09/26 09:05:00;;;;;;;13.30;8.40;;;21.80;83.70;;;;;;5053806;28;20099;-78
2021/09/26 09:07:26;;;;;;;10.05;8.38;;;21.90;84.00;;;;;;5053924;28;20485;-77
2021/09/26 09:09:56;;;;;;;11.05;9.15;;;22.00;83.80;;;;;;5036604;28;20074;-77
2021/09/26 09:12:33;;;;;;;10.85;8.55;;;22.00;83.50;;;;;;5054179;28;20033;-78
2021/09/26 09:15:05;;;;;;;10.40;8.15;;;22.20;83.50;;;;;;5037141;28;20029;-79
2021/09/26 09:17:39;;;;;;;11.00;8.65;;;22.10;83.30;;;;;;5048142;28;20021;-79
2021/09/26 09:20:27;;;;;;;10.63;7.93;;;22.20;83.20;;;;;;5054293;28;20056;-78
2021/09/26 09:22:58;;;;;;;9.65;8.00;;;22.40;83.10;;;;;;5055186;28;20052;-79
2021/09/26 09:25:39;;;;;;;10.10;8.50;;;22.50;82.60;;;;;;5055301;28;20052;-79
2021/09/26 09:28:17;;;;;;;10.77;8.27;;;22.50;81.90;;;;;;5055439;28;20036;-79
2021/09/26 09:30:46;;;;;;;12.82;8.57;;;22.50;81.80;;;;;;5055165;28;20040;-79
2021/09/26 09:33:13;;;;;;;10.35;8.55;;;22.60;82.00;;;;;;5037197;28;20055;-79
2021/09/26 09:35:41;;;;;;;12.57;8.52;;;22.60;81.90;;;;;;5035295;28;20031;-79
2021/09/26 09:38:07;;;;;;;14.75;8.88;;;22.70;81.70;;;;;;5036673;28;20533;-79
2021/09/26 09:40:33;;;;;;;14.45;8.68;;;22.80;81.30;;;;;;5052950;28;20052;-79
2021/09/26 09:43:00;;;;;;;10.18;8.63;;;22.80;81.30;;;;;;5054648;28;20162;-79
2021/09/26 09:45:28;;;;;;;14.75;10.27;;;23.00;80.70;;;;;;5036910;28;20037;-79
2021/09/26 09:48:13;;;;;;;10.75;8.55;;;23.10;79.60;;;;;;5036191;28;20017;-79
2021/09/26 09:50:47;;;;;;;12.18;9.20;;;23.20;79.50;;;;;;5046250;28;20378;-78
2021/09/26 09:53:29;;;;;;;10.55;8.48;;;23.20;79.90;;;;;;5048424;28;20123;-78
2021/09/26 09:55:56;;;;;;;14.00;10.82;;;23.20;79.80;;;;;;5036694;28;20025;-78
2021/09/26 09:58:22;;;;;;;13.13;9.98;;;23.20;79.90;;;;;;5036188;28;20061;-78
2021/09/26 10:00:57;;;;;;;13.43;10.25;;;23.30;79.70;;;;;;5054051;28;20656;-78
2021/09/26 10:03:41;;;;;;;15.20;9.55;;;23.30;79.70;;;;;;5034434;28;20398;-78
2021/09/26 10:06:26;;;;;;;12.75;10.00;;;23.30;79.40;;;;;;5035850;28;20059;-78
2021/09/26 10:09:00;;;;;;;13.82;9.52;;;23.30;79.40;;;;;;5036035;28;20022;-77
2021/09/26 10:11:28;;;;;;;13.90;10.63;;;23.30;79.30;;;;;;5053197;28;20055;-77
2021/09/26 10:13:56;;;;;;;13.75;10.45;;;23.40;78.70;;;;;;5053165;28;20024;-78
2021/09/26 10:16:22;;;;;;;11.73;9.38;;;23.60;78.20;;;;;;5016520;28;20045;-77
2021/09/26 10:18:48;;;;;;;13.30;8.75;;;23.70;78.10;;;;;;5048751;28;20032;-77
2021/09/26 10:21:15;;;;;;;11.68;9.25;;;23.70;77.90;;;;;;5047778;28;20375;-76
2021/09/26 10:23:45;;;;;;;12.65;9.02;;;23.80;77.60;;;;;;5048842;28;20028;-77
2021/09/26 10:26:12;;;;;;;11.57;8.93;;;23.80;77.30;;;;;;5050779;28;20025;-79
2021/09/26 10:28:40;;;;;;;13.80;8.70;;;24.00;77.10;;;;;;5047123;28;20059;-75
2021/09/26 10:31:06;;;;;;;13.75;9.25;;;24.10;76.40;;;;;;5051801;28;20032;-75
2021/09/26 10:33:33;;;;;;;12.20;9.20;;;24.20;76.00;;;;;;5033997;28;20033;-75
2021/09/26 10:36:00;;;;;;;11.27;9.02;;;24.30;75.60;;;;;;5034827;28;20412;-75
2021/09/26 10:38:27;;;;;;;13.93;8.27;;;24.40;75.30;;;;;;5051545;28;20021;-75
2021/09/26 10:40:53;;;;;;;10.70;8.63;;;24.40;74.40;;;;;;5033307;28;20103;-76
2021/09/26 10:43:27;;;;;;;12.00;7.88;;;24.50;74.50;;;;;;5051238;28;20040;-75
2021/09/26 10:46:17;;;;;;;9.60;8.57;;;24.50;74.80;;;;;;5051073;28;20136;-75
2021/09/26 10:49:09;;;;;;;14.75;9.98;;;24.60;74.40;;;;;;5049954;28;20075;-76
2021/09/26 10:51:40;;;;;;;12.35;9.23;;;24.40;73.60;;;;;;5033664;28;20063;-77
2021/09/26 10:54:21;;;;;;;11.88;9.02;;;24.30;74.30;;;;;;5034028;28;20486;-76
2021/09/26 10:57:06;;;;;;;9.80;7.95;;;24.20;74.10;;;;;;5051591;28;20123;-76
2021/09/26 10:59:41;;;;;;;15.63;8.80;;;24.20;74.30;;;;;;5025547;28;20125;-76
2021/09/26 11:02:25;;;;;;;13.85;8.23;;;24.30;74.80;;;;;;5033542;28;20040;-79
2021/09/26 11:05:00;;;;;;;9.50;7.47;;;24.30;74.00;;;;;;5034895;28;20071;-79
2021/09/26 11:07:43;;;;;;;11.45;7.97;;;24.20;74.50;;;;;;5035201;28;20128;-79
2021/09/26 11:10:10;;;;;;;9.90;8.45;;;24.10;74.80;;;;;;5053419;28;20021;-79
2021/09/26 11:12:35;;;;;;;10.75;8.23;;;23.90;75.60;;;;;;5034983;28;20108;-79
2021/09/26 11:15:03;;;;;;;10.50;7.38;;;23.80;76.00;;;;;;5052814;28;20417;-79
2021/09/26 11:17:45;;;;;;;12.05;7.30;;;23.70;76.30;;;;;;5035568;28;20051;-79
2021/09/26 11:20:32;;;;;;;12.65;7.90;;;23.60;77.00;;;;;;5053228;28;20021;-79
2021/09/26 11:23:06;;;;;;;11.93;7.78;;;23.50;77.60;;;;;;5041153;28;20041;-79
2021/09/26 11:25:56;;;;;;;10.77;8.68;;;23.40;78.20;;;;;;5052767;28;20028;-79
2021/09/26 11:28:24;;;;;;;13.50;7.80;;;23.40;78.20;;;;;;5038205;28;20107;-79
2021/09/26 11:30:50;;;;;;;10.70;8.30;;;23.30;78.10;;;;;;5052482;28;20671;-80
2021/09/26 11:33:16;;;;;;;13.82;7.72;;;23.20;78.10;;;;;;5052751;28;20361;-80
2021/09/26 11:35:42;;;;;;;9.50;7.38;;;23.20;78.50;;;;;;5017965;28;20045;-79
2021/09/26 11:38:11;;;;;;;10.20;8.15;;;23.10;78.70;;;;;;5025606;28;20030;-75
2021/09/26 11:41:05;;;;;;;9.23;7.60;;;23.00;78.80;;;;;;5032141;28;20477;-76
2021/09/26 11:43:34;;;;;;;8.48;6.85;;;23.00;78.60;;;;;;5041677;28;20072;-75
2021/09/26 11:46:15;;;;;;;10.10;7.60;;;23.00;79.20;;;;;;5033584;28;20032;-75
2021/09/26 11:48:41;;;;;;;11.73;7.60;;;23.00;79.30;;;;;;5051211;28;20440;-75
2021/09/26 11:51:12;;;;;;;8.95;7.45;;;23.00;79.10;;;;;;5051533;28;20103;-77
2021/09/26 11:53:40;;;;;;;13.05;8.02;;;23.00;78.80;;;;;;5050349;28;20029;-78
2021/09/26 11:56:33;;;;;;;10.15;7.70;;;23.00;78.80;;;;;;5051084;28;20032;-78
2021/09/26 11:59:01;;;;;;;10.13;7.65;;;23.10;78.60;;;;;;5051510;28;20029;-78
2021/09/26 12:01:33;;;;;;;8.95;8.05;;;23.20;79.00;;;;;;5050478;28;20025;-76
2021/09/26 12:04:08;;;;;;;11.90;7.85;;;23.30;79.20;;;;;;5031319;28;20575;-76
2021/09/26 12:06:34;;;;;;;9.60;8.38;;;23.30;78.80;;;;;;5051407;28;20052;-77
2021/09/26 12:08:59;;;;;;;10.52;7.38;;;23.30;78.90;;;;;;5050140;28;20489;-77
2021/09/26 12:11:25;;;;;;;10.82;7.28;;;23.30;78.60;;;;;;5029467;28;20037;-78
2021/09/26 12:13:53;;;;;;;11.45;7.07;;;23.20;78.50;;;;;;5049788;28;20664;-78
2021/09/26 12:16:20;;;;;;;10.73;6.40;;;23.20;78.40;;;;;;5051285;28;20393;-77
2021/09/26 12:18:57;;;;;;;10.10;7.10;;;23.10;79.40;;;;;;5051288;28;20043;-78
2021/09/26 12:21:30;;;;;;;6.95;6.32;;;23.00;79.00;;;;;;5030434;28;20038;-78
2021/09/26 12:24:03;;;;;;;10.55;6.72;;;22.90;79.20;;;;;;5041824;28;20037;-78
2021/09/26 12:26:48;;;;;;;6.70;6.00;;;22.90;79.20;;;;;;5052763;28;20121;-78
2021/09/26 12:29:25;;;;;;;8.13;5.57;;;22.80;79.90;;;;;;5036790;28;20029;-78
2021/09/26 12:31:56;;;;;;;9.98;5.22;;;22.80;79.40;;;;;;5055103;28;20516;-78
2021/09/26 12:34:34;;;;;;;9.48;5.63;;;22.70;79.30;;;;;;5054258;28;20033;-78
2021/09/26 12:37:02;;;;;;;6.40;5.80;;;22.80;79.60;;;;;;5054388;28;20115;-78
2021/09/26 12:39:43;;;;;;;7.95;6.18;;;22.80;79.50;;;;;;5037522;28;20086;-77
2021/09/26 12:42:18;;;;;;;6.50;5.90;;;22.80;79.00;;;;;;5054575;28;20033;-77
2021/09/26 12:44:44;;;;;;;9.85;5.60;;;22.80;79.50;;;;;;5054231;28;20123;-77
2021/09/26 12:47:18;;;;;;;8.57;4.70;;;22.80;79.40;;;;;;5016561;28;20124;-76
2021/09/26 12:49:46;;;;;;;6.07;4.25;;;22.80;79.30;;;;;;5048809;28;20556;-77